createdAt,value
2018-12-27T00:00:55.704Z,51.20
2018-12-27T00:03:24.103Z,51.60
2018-12-27T00:05:52.512Z,50.83
2018-12-27T00:08:20.912Z,48.78
2018-12-27T00:10:49.324Z,47.43
2018-12-27T00:13:17.731Z,48.90
2018-12-27T00:15:46.145Z,48.38
2018-12-27T00:18:14.548Z,48.08
2018-12-27T00:20:42.964Z,45.75
2018-12-27T00:23:11.356Z,47.13
2018-12-27T00:25:39.760Z,46.00
2018-12-27T00:28:08.403Z,45.95
2018-12-27T00:30:36.956Z,46.75
2018-12-27T00:33:05.515Z,46.53
2018-12-27T00:35:34.083Z,44.25
2018-12-27T00:38:02.639Z,43.90
2018-12-27T00:40:31.212Z,44.48
2018-12-27T00:43:00.050Z,43.38
2018-12-27T00:45:28.611Z,42.38
2018-12-27T00:47:57.168Z,41.35
2018-12-27T00:50:25.736Z,42.90
2018-12-27T00:52:54.295Z,40.88
2018-12-27T00:55:22.900Z,39.83
2018-12-27T00:57:51.463Z,36.98
2018-12-27T01:00:20.019Z,39.15
2018-12-27T01:02:48.574Z,39.75
2018-12-27T01:05:17.140Z,41.00
2018-12-27T01:07:45.691Z,38.08
2018-12-27T01:10:14.256Z,38.20
2018-12-27T01:12:42.822Z,36.73
2018-12-27T01:15:11.380Z,37.98
2018-12-27T01:17:39.945Z,37.48
2018-12-27T01:20:08.508Z,35.95
2018-12-27T01:22:37.064Z,35.40
2018-12-27T01:25:05.631Z,34.88
2018-12-27T01:27:34.193Z,34.38
2018-12-27T01:30:02.763Z,34.23
2018-12-27T01:32:31.336Z,33.25
2018-12-27T01:34:59.906Z,32.20
2018-12-27T01:37:28.475Z,33.95
2018-12-27T01:39:57.043Z,33.42
2018-12-27T01:42:25.615Z,33.67
2018-12-27T01:44:54.175Z,33.42
2018-12-27T01:47:22.751Z,33.38
2018-12-27T01:49:51.317Z,32.67
2018-12-27T01:52:19.896Z,33.23
2018-12-27T01:54:48.455Z,34.78
2018-12-27T01:57:17.032Z,35.20
2018-12-27T01:59:45.587Z,33.85
2018-12-27T02:02:14.163Z,33.98
2018-12-27T02:04:42.735Z,35.55
2018-12-27T02:07:11.307Z,34.67
2018-12-27T02:09:39.880Z,36.65
2018-12-27T02:12:08.535Z,34.27
2018-12-27T02:14:37.171Z,34.63
2018-12-27T02:17:05.740Z,35.33
2018-12-27T02:19:34.300Z,35.20
2018-12-27T02:22:02.856Z,34.53
2018-12-27T02:24:31.412Z,33.20
2018-12-27T02:26:59.975Z,34.70
2018-12-27T02:29:28.833Z,32.35
2018-12-27T02:31:57.408Z,34.20
2018-12-27T02:34:25.962Z,33.23
2018-12-27T02:36:54.516Z,32.48
2018-12-27T02:39:23.081Z,33.35
2018-12-27T02:41:51.639Z,33.47
2018-12-27T02:44:20.454Z,33.13
2018-12-27T02:46:49.016Z,34.40
2018-12-27T02:49:17.580Z,34.40
2018-12-27T02:51:46.139Z,34.40
2018-12-27T02:54:14.712Z,33.60
2018-12-27T02:56:43.280Z,34.50
2018-12-27T02:59:13.482Z,35.33
2018-12-27T03:01:42.037Z,34.87
2018-12-27T03:04:10.601Z,33.85
2018-12-27T03:06:39.507Z,34.58
2018-12-27T03:09:08.073Z,35.05
2018-12-27T03:11:36.623Z,34.95
2018-12-27T03:14:05.191Z,34.03
2018-12-27T03:16:33.742Z,33.35
2018-12-27T03:19:02.303Z,33.10
2018-12-27T03:21:31.120Z,32.55
2018-12-27T03:23:59.689Z,34.03
2018-12-27T03:26:28.244Z,34.33
2018-12-27T03:28:56.809Z,36.30
2018-12-27T03:31:25.503Z,34.93
2018-12-27T03:33:54.107Z,35.50
2018-12-27T03:36:22.662Z,36.08
2018-12-27T03:38:51.223Z,37.10
2018-12-27T03:41:19.788Z,35.50
2018-12-27T03:43:48.360Z,36.65
2018-12-27T03:46:16.925Z,34.70
2018-12-27T03:48:45.492Z,36.68
2018-12-27T03:51:14.061Z,38.65
2018-12-27T03:53:42.630Z,36.65
2018-12-27T03:56:11.191Z,36.40
2018-12-27T03:58:39.758Z,37.48
2018-12-27T04:01:08.320Z,38.10
2018-12-27T04:03:36.888Z,38.98
2018-12-27T04:06:05.446Z,40.90
2018-12-27T04:08:33.999Z,39.05
2018-12-27T04:11:02.577Z,40.30
2018-12-27T04:13:31.138Z,39.95
2018-12-27T04:15:59.560Z,39.48
2018-12-27T04:18:27.975Z,40.20
2018-12-27T04:20:56.431Z,39.53
2018-12-27T04:23:25.308Z,38.83
2018-12-27T04:25:53.879Z,36.28
2018-12-27T04:28:22.287Z,39.13
2018-12-27T04:30:50.972Z,38.08
2018-12-27T04:33:19.922Z,37.25
2018-12-27T04:35:49.668Z,37.57
2018-12-27T04:38:18.065Z,38.13
2018-12-27T04:40:46.471Z,39.23
2018-12-27T04:43:15.113Z,38.07
2018-12-27T04:45:43.524Z,38.48
2018-12-27T04:48:11.924Z,38.27
2018-12-27T04:50:40.327Z,37.60
2018-12-27T04:53:08.731Z,39.40
2018-12-27T04:55:37.142Z,38.80
2018-12-27T04:58:05.563Z,39.92
2018-12-27T05:00:33.962Z,40.17
2018-12-27T05:03:02.374Z,40.08
2018-12-27T05:05:31.000Z,40.78
2018-12-27T05:08:00.489Z,41.23
2018-12-27T05:10:28.984Z,41.45
2018-12-27T05:12:57.392Z,42.55
2018-12-27T05:15:25.798Z,41.30
2018-12-27T05:17:54.211Z,42.58
2018-12-27T05:20:22.613Z,42.00
2018-12-27T05:22:51.026Z,42.00
2018-12-27T05:25:19.423Z,41.75
2018-12-27T05:27:47.844Z,40.75
2018-12-27T05:30:16.253Z,38.53
2018-12-27T05:32:44.981Z,41.42
2018-12-27T05:35:13.385Z,38.55
2018-12-27T05:37:41.813Z,40.35
2018-12-27T05:40:11.120Z,38.35
2018-12-27T05:42:39.532Z,40.00
2018-12-27T05:45:27.264Z,38.28
2018-12-27T05:47:55.674Z,38.80
2018-12-27T05:50:24.091Z,38.15
2018-12-27T05:52:52.500Z,38.17
2018-12-27T05:55:20.908Z,37.93
2018-12-27T05:57:49.316Z,37.85
2018-12-27T06:00:17.722Z,37.50
2018-12-27T06:02:46.136Z,37.42
2018-12-27T06:05:14.533Z,36.35
2018-12-27T06:07:42.959Z,36.13
2018-12-27T06:10:11.661Z,35.08
2018-12-27T06:12:40.321Z,34.85
2018-12-27T06:15:08.732Z,36.30
2018-12-27T06:17:37.157Z,35.28
2018-12-27T06:20:05.880Z,36.13
2018-12-27T06:22:34.300Z,36.58
2018-12-27T06:25:02.701Z,34.98
2018-12-27T06:27:31.096Z,35.00
2018-12-27T06:29:59.512Z,35.52
2018-12-27T06:32:27.911Z,33.47
2018-12-27T06:34:56.323Z,33.78
2018-12-27T06:37:24.720Z,34.30
2018-12-27T06:39:53.123Z,34.10
2018-12-27T06:42:21.544Z,32.75
2018-12-27T06:44:49.953Z,33.65
2018-12-27T06:47:18.351Z,33.13
2018-12-27T06:49:46.775Z,33.67
2018-12-27T06:52:15.180Z,32.90
2018-12-27T06:54:43.580Z,33.70
2018-12-27T06:57:11.984Z,33.60
2018-12-27T06:59:40.735Z,33.83
2018-12-27T07:02:09.133Z,34.55
2018-12-27T07:04:37.539Z,34.63
2018-12-27T07:07:05.947Z,33.95
2018-12-27T07:09:34.356Z,33.53
2018-12-27T07:12:02.753Z,34.95
2018-12-27T07:14:31.167Z,35.73
2018-12-27T07:16:59.572Z,34.30
2018-12-27T07:19:27.983Z,36.85
2018-12-27T07:21:56.383Z,33.58
2018-12-27T07:24:24.865Z,35.38
2018-12-27T07:26:53.275Z,36.30
2018-12-27T07:29:21.683Z,36.25
2018-12-27T07:31:50.080Z,34.98
2018-12-27T07:34:18.732Z,35.73
2018-12-27T07:36:47.140Z,35.38
2018-12-27T07:39:15.572Z,35.20
2018-12-27T07:41:43.960Z,36.55
2018-12-27T07:44:12.361Z,35.48
2018-12-27T07:46:40.772Z,37.60
2018-12-27T07:49:09.184Z,36.17
2018-12-27T07:51:37.599Z,38.73
2018-12-27T07:54:06.284Z,37.23
2018-12-27T07:56:34.708Z,37.65
2018-12-27T07:59:03.103Z,38.90
2018-12-27T08:01:31.512Z,37.58
2018-12-27T08:04:00.188Z,37.35
2018-12-27T08:06:28.603Z,37.90
2018-12-27T08:08:56.996Z,39.90
2018-12-27T08:11:25.410Z,39.45
2018-12-27T08:13:53.805Z,40.73
2018-12-27T08:16:22.241Z,40.73
2018-12-27T08:18:50.636Z,39.90
2018-12-27T08:21:19.060Z,42.10
2018-12-27T08:23:47.460Z,40.92
2018-12-27T08:26:15.876Z,41.23
2018-12-27T08:28:44.276Z,42.85
2018-12-27T08:31:12.723Z,44.00
2018-12-27T08:33:41.127Z,43.48
2018-12-27T08:36:09.551Z,43.75
2018-12-27T08:38:37.947Z,43.00
2018-12-27T08:41:06.356Z,44.93
2018-12-27T08:43:34.760Z,45.17
2018-12-27T08:46:03.161Z,44.33
2018-12-27T08:48:31.567Z,41.80
2018-12-27T08:50:59.963Z,44.63
2018-12-27T08:53:28.380Z,46.30
2018-12-27T08:55:56.780Z,45.98
2018-12-27T08:58:25.192Z,43.35
2018-12-27T09:00:53.599Z,48.23
2018-12-27T09:03:22.014Z,46.88
2018-12-27T09:05:50.404Z,46.55
2018-12-27T09:08:18.830Z,46.37
2018-12-27T09:10:47.243Z,46.85
2018-12-27T09:13:15.663Z,46.05
2018-12-27T09:15:44.072Z,47.05
2018-12-27T09:18:12.485Z,46.60
2018-12-27T09:20:40.892Z,44.15
2018-12-27T09:23:09.301Z,45.40
2018-12-27T09:25:37.779Z,45.60
2018-12-27T09:28:06.189Z,44.85
2018-12-27T09:30:34.604Z,48.45
2018-12-27T09:33:03.000Z,46.60
2018-12-27T09:35:31.413Z,47.20
2018-12-27T09:37:59.811Z,45.95
2018-12-27T09:40:28.252Z,47.00
2018-12-27T09:42:56.655Z,46.20
2018-12-27T09:45:25.072Z,48.55
2018-12-27T09:47:53.477Z,47.65
2018-12-27T09:50:21.879Z,49.03
2018-12-27T09:52:50.565Z,47.90
2018-12-27T09:55:19.255Z,48.00
2018-12-27T09:57:47.668Z,51.23
2018-12-27T10:00:16.071Z,50.50
2018-12-27T10:02:45.008Z,51.58
2018-12-27T10:05:13.438Z,49.58
2018-12-27T10:07:41.847Z,48.05
2018-12-27T10:10:10.244Z,48.25
2018-12-27T10:12:38.652Z,49.47
2018-12-27T10:15:08.387Z,50.52
2018-12-27T10:17:36.796Z,50.17
2018-12-27T10:20:06.329Z,50.80
2018-12-27T10:22:35.502Z,51.48
2018-12-27T10:25:05.140Z,52.62
2018-12-27T10:27:33.543Z,50.20
2018-12-27T10:30:02.011Z,51.65
2018-12-27T10:32:31.473Z,51.40
2018-12-27T10:34:59.872Z,51.08
2018-12-27T10:37:28.279Z,53.17
2018-12-27T10:39:57.023Z,55.67
2018-12-27T10:42:25.429Z,53.20
2018-12-27T10:44:53.876Z,54.00
2018-12-27T10:47:22.566Z,55.20
2018-12-27T10:49:50.972Z,54.40
2018-12-27T10:52:19.379Z,55.70
2018-12-27T10:54:47.871Z,57.58
2018-12-27T10:57:16.324Z,56.28
2018-12-27T10:59:44.748Z,57.17
2018-12-27T11:02:13.165Z,53.68
2018-12-27T11:04:41.569Z,53.58
2018-12-27T11:07:09.976Z,55.50
2018-12-27T11:09:38.384Z,55.75
2018-12-27T11:12:06.788Z,56.77
2018-12-27T11:14:35.208Z,56.02
2018-12-27T11:17:03.620Z,54.18
2018-12-27T11:19:32.045Z,54.45
2018-12-27T11:22:00.447Z,57.95
2018-12-27T11:24:28.855Z,56.00
2018-12-27T11:26:57.254Z,58.17
2018-12-27T11:29:25.671Z,56.65
2018-12-27T11:31:54.488Z,58.02
2018-12-27T11:34:22.908Z,57.85
2018-12-27T11:36:51.303Z,58.78
2018-12-27T11:39:19.704Z,59.30
2018-12-27T11:41:48.123Z,61.35
2018-12-27T11:44:16.537Z,60.73
2018-12-27T11:46:44.939Z,59.23
2018-12-27T11:49:13.353Z,57.10
2018-12-27T11:51:41.756Z,59.70
2018-12-27T11:54:10.488Z,59.40
2018-12-27T11:56:38.889Z,62.60
2018-12-27T11:59:07.295Z,61.73
2018-12-27T12:01:35.723Z,61.45
2018-12-27T12:04:04.505Z,61.63
2018-12-27T12:06:32.927Z,63.30
2018-12-27T12:09:01.326Z,61.10
2018-12-27T12:11:29.736Z,60.08
2018-12-27T12:13:58.139Z,60.88
2018-12-27T12:16:26.853Z,61.87
2018-12-27T12:18:55.290Z,62.65
2018-12-27T12:21:23.700Z,61.45
2018-12-27T12:23:57.472Z,62.67
2018-12-27T12:26:25.971Z,63.90
2018-12-27T12:28:54.480Z,62.67
2018-12-27T12:31:22.899Z,61.98
2018-12-27T12:33:51.295Z,60.20
2018-12-27T12:36:19.714Z,60.50
2018-12-27T12:38:48.109Z,59.30
2018-12-27T12:41:16.538Z,59.50
2018-12-27T12:43:44.949Z,60.05
2018-12-27T12:46:13.357Z,58.48
2018-12-27T12:48:41.757Z,59.03
2018-12-27T12:51:10.168Z,59.10
2018-12-27T12:53:38.572Z,59.83
2018-12-27T12:56:06.980Z,58.23
2018-12-27T12:58:35.392Z,56.40
2018-12-27T13:01:03.809Z,58.55
2018-12-27T13:03:32.228Z,55.12
2018-12-27T13:06:00.628Z,57.13
2018-12-27T13:08:29.043Z,56.67
2018-12-27T13:10:57.459Z,54.70
2018-12-27T13:13:25.866Z,57.08
2018-12-27T13:15:54.537Z,53.48
2018-12-27T13:18:23.020Z,53.20
2018-12-27T13:20:51.421Z,54.38
2018-12-27T13:23:19.840Z,53.28
2018-12-27T13:25:48.244Z,51.28
2018-12-27T13:28:16.660Z,53.70
2018-12-27T13:30:45.065Z,52.50
2018-12-27T13:33:13.496Z,50.83
2018-12-27T13:35:41.904Z,51.00
2018-12-27T13:38:10.313Z,51.63
2018-12-27T13:40:38.720Z,51.65
2018-12-27T13:43:07.132Z,49.18
2018-12-27T13:45:35.787Z,50.10
2018-12-27T13:48:04.226Z,50.43
2018-12-27T13:50:32.619Z,49.95
2018-12-27T13:53:01.024Z,50.78
2018-12-27T13:55:29.440Z,46.80
2018-12-27T13:57:57.848Z,47.60
2018-12-27T14:00:26.287Z,47.03
2018-12-27T14:02:54.941Z,48.30
2018-12-27T14:05:23.391Z,45.15
2018-12-27T14:07:51.795Z,45.80
2018-12-27T14:10:20.204Z,46.45
2018-12-27T14:12:48.604Z,45.60
2018-12-27T14:15:17.011Z,45.43
2018-12-27T14:17:45.415Z,46.95
2018-12-27T14:20:13.824Z,45.38
2018-12-27T14:22:42.227Z,46.80
2018-12-27T14:25:10.728Z,45.75
2018-12-27T14:27:39.128Z,47.20
2018-12-27T14:30:08.680Z,47.15
2018-12-27T14:32:37.084Z,46.00
2018-12-27T14:35:06.052Z,46.25
2018-12-27T14:37:34.542Z,46.30
2018-12-27T14:40:03.623Z,47.48
2018-12-27T14:42:32.020Z,47.10
2018-12-27T14:45:00.437Z,46.77
2018-12-27T14:47:28.844Z,45.63
2018-12-27T14:49:57.256Z,46.45
2018-12-27T14:52:25.661Z,49.23
2018-12-27T14:54:54.064Z,48.17
2018-12-27T14:57:22.470Z,49.13
2018-12-27T14:59:50.877Z,48.17
2018-12-27T15:02:19.272Z,47.60
2018-12-27T15:04:47.976Z,47.35
2018-12-27T15:07:16.444Z,49.18
2018-12-27T15:09:44.868Z,50.90
2018-12-27T15:12:13.285Z,48.63
2018-12-27T15:14:41.695Z,50.15
2018-12-27T15:17:10.101Z,48.65
2018-12-27T15:19:38.852Z,50.97
2018-12-27T15:22:07.270Z,49.48
2018-12-27T15:24:35.688Z,48.65
2018-12-27T15:27:05.054Z,49.43
2018-12-27T15:29:33.448Z,49.85
2018-12-27T15:32:01.866Z,48.60
2018-12-27T15:34:30.272Z,49.25
2018-12-27T15:36:58.680Z,48.50
2018-12-27T15:39:27.093Z,48.00
2018-12-27T15:41:55.909Z,49.55
2018-12-27T15:44:24.306Z,49.80
2018-12-27T15:46:52.719Z,48.95
2018-12-27T15:49:21.128Z,49.87
2018-12-27T15:51:49.578Z,50.30
2018-12-27T15:54:17.989Z,49.83
2018-12-27T15:56:46.401Z,50.28
2018-12-27T15:59:14.808Z,52.00
2018-12-27T16:01:43.229Z,51.68
2018-12-27T16:04:11.632Z,50.38
2018-12-27T16:06:40.046Z,49.73
2018-12-27T16:09:08.451Z,52.40
2018-12-27T16:11:36.871Z,52.75
2018-12-27T16:14:05.275Z,51.68
2018-12-27T16:16:33.687Z,52.98
2018-12-27T16:19:02.384Z,53.42
2018-12-27T16:21:31.072Z,53.23
2018-12-27T16:23:59.483Z,51.95
2018-12-27T16:26:27.898Z,55.75
2018-12-27T16:28:56.306Z,54.50
2018-12-27T16:31:24.796Z,53.42
2018-12-27T16:33:53.206Z,54.60
2018-12-27T16:36:21.604Z,53.87
2018-12-27T16:38:50.016Z,55.93
2018-12-27T16:41:18.427Z,56.50
2018-12-27T16:43:46.836Z,56.60
2018-12-27T16:46:15.244Z,55.90
2018-12-27T16:48:43.671Z,56.10
2018-12-27T16:51:12.081Z,56.23
2018-12-27T16:53:40.817Z,57.35
2018-12-27T16:56:09.228Z,57.62
2018-12-27T16:58:37.639Z,58.87
2018-12-27T17:01:06.060Z,59.30
2018-12-27T17:03:34.472Z,58.38
2018-12-27T17:06:03.055Z,58.68
2018-12-27T17:08:31.449Z,58.33
2018-12-27T17:10:59.856Z,57.05
2018-12-27T17:13:28.284Z,58.23
2018-12-27T17:15:56.691Z,59.00
2018-12-27T17:18:25.100Z,58.20
2018-12-27T17:20:53.507Z,59.63
2018-12-27T17:23:21.908Z,59.93
2018-12-27T17:25:50.307Z,59.27
2018-12-27T17:28:18.715Z,61.00
2018-12-27T17:30:47.117Z,59.40
2018-12-27T17:33:15.531Z,59.58
2018-12-27T17:35:43.944Z,60.92
2018-12-27T17:38:12.352Z,59.35
2018-12-27T17:40:40.756Z,61.37
2018-12-27T17:43:09.161Z,60.50
2018-12-27T17:45:37.561Z,61.13
2018-12-27T17:48:05.990Z,61.85
2018-12-27T17:50:34.390Z,59.42
2018-12-27T17:53:02.797Z,59.35
2018-12-27T17:55:31.191Z,58.30
2018-12-27T17:57:59.600Z,59.30
2018-12-27T18:00:28.016Z,59.23
2018-12-27T18:02:56.425Z,56.40
2018-12-27T18:05:25.087Z,56.85
2018-12-27T18:07:53.877Z,58.65
2018-12-27T18:10:22.284Z,57.75
2018-12-27T18:12:50.695Z,58.13
2018-12-27T18:15:19.100Z,58.73
2018-12-27T18:17:47.509Z,58.98
2018-12-27T18:20:15.921Z,60.25
2018-12-27T18:22:44.336Z,58.58
2018-12-27T18:25:12.748Z,58.33
2018-12-27T18:27:41.178Z,56.63
2018-12-27T18:30:09.580Z,59.13
2018-12-27T18:32:37.988Z,58.02
2018-12-27T18:35:07.543Z,58.33
2018-12-27T18:37:37.864Z,58.17
2018-12-27T18:40:06.143Z,57.23
2018-12-27T18:42:34.544Z,57.00
2018-12-27T18:45:02.954Z,56.98
2018-12-27T18:47:31.352Z,58.63
2018-12-27T18:49:59.760Z,59.08
2018-12-27T18:52:28.164Z,57.35
2018-12-27T18:54:56.579Z,54.83
2018-12-27T18:57:24.991Z,57.15
2018-12-27T18:59:53.405Z,58.28
2018-12-27T19:02:21.801Z,57.48
2018-12-27T19:04:50.207Z,60.57
2018-12-27T19:07:18.628Z,58.52
2018-12-27T19:09:47.025Z,58.02
2018-12-27T19:12:51.821Z,56.40
2018-12-27T19:15:20.241Z,58.23
2018-12-27T19:17:50.570Z,58.90
2018-12-27T19:20:18.985Z,60.45
2018-12-27T19:22:50.467Z,58.13
2018-12-27T19:25:18.902Z,59.27
2018-12-27T19:27:47.331Z,59.83
2018-12-27T19:30:15.748Z,61.45
2018-12-27T19:32:44.154Z,61.33
2018-12-27T19:35:12.560Z,58.02
2018-12-27T19:37:40.963Z,61.23
2018-12-27T19:40:09.367Z,60.60
2018-12-27T19:42:37.775Z,62.13
2018-12-27T19:45:06.200Z,60.43
2018-12-27T19:47:34.688Z,63.85
2018-12-27T19:50:03.372Z,61.80
2018-12-27T19:52:31.784Z,60.05
2018-12-27T19:55:00.188Z,65.08
2018-12-27T19:57:28.599Z,64.67
2018-12-27T19:59:57.009Z,64.93
2018-12-27T20:02:25.404Z,64.55
2018-12-27T20:04:53.825Z,62.53
2018-12-27T20:07:22.524Z,64.42
2018-12-27T20:09:50.944Z,65.50
2018-12-27T20:12:19.343Z,66.28
2018-12-27T20:14:47.759Z,66.05
2018-12-27T20:17:16.175Z,66.20
2018-12-27T20:19:44.596Z,65.05
2018-12-27T20:22:13.008Z,67.03
2018-12-27T20:24:41.430Z,65.80
2018-12-27T20:27:09.836Z,66.80
2018-12-27T20:29:38.247Z,66.10
2018-12-27T20:32:06.664Z,68.52
2018-12-27T20:34:35.092Z,68.62
2018-12-27T20:37:03.500Z,69.87
2018-12-27T20:39:32.709Z,65.13
2018-12-27T20:42:01.539Z,69.37
2018-12-27T20:44:30.010Z,70.22
2018-12-27T20:46:58.503Z,67.20
2018-12-27T20:49:27.189Z,66.70
2018-12-27T20:51:56.085Z,67.20
2018-12-27T20:54:24.497Z,67.92
2018-12-27T20:56:52.943Z,69.77
2018-12-27T20:59:21.358Z,68.67
2018-12-27T21:01:49.777Z,67.27
2018-12-27T21:04:18.184Z,67.77
2018-12-27T21:06:46.604Z,68.57
2018-12-27T21:09:15.012Z,71.72
2018-12-27T21:11:43.431Z,67.60
2018-12-27T21:14:11.855Z,67.92
2018-12-27T21:16:40.275Z,70.10
2018-12-27T21:19:08.681Z,67.30
2018-12-27T21:21:37.096Z,68.50
2018-12-27T21:24:05.526Z,69.05
2018-12-27T21:26:33.940Z,68.30
2018-12-27T21:29:02.344Z,65.37
2018-12-27T21:31:30.765Z,67.50
2018-12-27T21:33:59.183Z,67.10
2018-12-27T21:36:27.592Z,64.55
2018-12-27T21:38:55.996Z,64.47
2018-12-27T21:41:24.407Z,66.10
2018-12-27T21:43:52.815Z,68.90
2018-12-27T21:46:21.226Z,62.43
2018-12-27T21:48:49.639Z,63.42
2018-12-27T21:51:18.051Z,63.45
2018-12-27T21:53:46.476Z,64.95
2018-12-27T21:56:14.896Z,66.55
2018-12-27T21:58:43.296Z,66.92
2018-12-27T22:01:11.716Z,64.20
2018-12-27T22:03:40.133Z,63.23
2018-12-27T22:06:08.553Z,63.65
2018-12-27T22:08:36.948Z,60.78
2018-12-27T22:11:05.367Z,63.05
2018-12-27T22:13:33.772Z,63.38
2018-12-27T22:16:02.196Z,64.70
2018-12-27T22:18:30.602Z,62.67
2018-12-27T22:20:59.041Z,60.70
2018-12-27T22:23:27.812Z,62.20
2018-12-27T22:25:56.223Z,60.25
2018-12-27T22:28:24.632Z,62.00
2018-12-27T22:30:53.038Z,59.80
2018-12-27T22:33:21.442Z,64.75
2018-12-27T22:35:49.844Z,61.23
2018-12-27T22:38:18.256Z,61.28
2018-12-27T22:40:46.659Z,61.53
2018-12-27T22:43:15.072Z,64.65
2018-12-27T22:45:43.479Z,61.60
2018-12-27T22:48:11.891Z,64.27
2018-12-27T22:50:40.287Z,63.23
2018-12-27T22:53:08.718Z,64.53
2018-12-27T22:55:37.121Z,64.30
2018-12-27T22:58:05.537Z,65.80
2018-12-27T23:00:37.634Z,65.40
2018-12-27T23:03:06.160Z,65.67
2018-12-27T23:05:34.564Z,66.23
2018-12-27T23:08:02.972Z,67.45
2018-12-27T23:10:31.383Z,68.95
2018-12-27T23:12:59.793Z,66.80
2018-12-27T23:15:28.209Z,63.63
2018-12-27T23:17:56.626Z,66.85
2018-12-27T23:20:25.032Z,68.25
2018-12-27T23:22:53.463Z,69.50
2018-12-27T23:25:21.872Z,70.25
2018-12-27T23:27:50.272Z,69.17
2018-12-27T23:30:18.683Z,72.90
2018-12-27T23:32:47.125Z,69.77
2018-12-27T23:35:15.539Z,73.12
2018-12-27T23:37:43.948Z,70.52
2018-12-27T23:40:12.360Z,71.90
2018-12-27T23:42:40.784Z,69.07
2018-12-27T23:45:09.200Z,67.58
2018-12-27T23:47:37.595Z,67.50
2018-12-27T23:50:06.008Z,66.35
2018-12-27T23:52:34.428Z,69.12
2018-12-27T23:55:02.835Z,70.00
2018-12-27T23:57:31.240Z,67.65
2018-12-27T23:59:59.653Z,66.10
